sensor_id;sensor_type;location;lat;lon;timestamp;pressure;altitude;pressure_sealevel;temperature;humidity
2178;BME280;1095;50.992;6.798;2024-01-25T00:02:13;102060.97;;;8.94;100.00
2178;BME280;1095;50.992;6.798;2024-01-25T00:15:32;102062.16;;;9.02;100.00
2178;BME280;1095;50.992;6.798;2024-01-25T00:18:22;102068.78;;;8.94;100.00
2178;BME280;1095;50.992;6.798;2024-01-25T00:21:23;102076.66;;;9.06;100.00
2178;BME280;1095;50.992;6.798;2024-01-25T00:24:20;102067.13;;;8.93;100.00
2178;BME280;1095;50.992;6.798;2024-01-25T00:27:10;102061.69;;;8.96;100.00
2178;BME280;1095;50.992;6.798;2024-01-25T00:29:57;102060.25;;;8.92;100.00
2178;BME280;1095;50.992;6.798;2024-01-25T00:32:29;102065.34;;;8.94;100.00
2178;BME280;1095;50.992;6.798;2024-01-25T00:38:23;102050.44;;;8.83;100.00
2178;BME280;1095;50.992;6.798;2024-01-25T00:42:01;102058.25;;;8.96;100.00
2178;BME280;1095;50.992;6.798;2024-01-25T00:44:31;102050.03;;;8.89;100.00
2178;BME280;1095;50.992;6.798;2024-01-25T00:47:15;102051.41;;;8.82;100.00
2178;BME280;1095;50.992;6.798;2024-01-25T00:50:14;102070.41;;;8.84;100.00
2178;BME280;1095;50.992;6.798;2024-01-25T00:53:01;102069.16;;;8.77;100.00
2178;BME280;1095;50.992;6.798;2024-01-25T00:55:49;102068.88;;;8.69;100.00
2178;BME280;1095;50.992;6.798;2024-01-25T00:58:58;102077.84;;;8.65;100.00
2178;BME280;1095;50.992;6.798;2024-01-25T01:01:51;102082.03;;;8.55;100.00
2178;BME280;1095;50.992;6.798;2024-01-25T01:15:02;102074.66;;;8.23;100.00
2178;BME280;1095;50.992;6.798;2024-01-25T01:17:35;102082.91;;;8.05;100.00
2178;BME280;1095;50.992;6.798;2024-01-25T01:20:11;102098.75;;;8.14;100.00
2178;BME280;1095;50.992;6.798;2024-01-25T01:26:26;102096.66;;;8.07;100.00
2178;BME280;1095;50.992;6.798;2024-01-25T01:29:46;102107.09;;;8.07;100.00
2178;BME280;1095;50.992;6.798;2024-01-25T01:32:34;102096.06;;;8.03;100.00
2178;BME280;1095;50.992;6.798;2024-01-25T02:21:43;102144.88;;;8.01;100.00
2178;BME280;1095;50.992;6.798;2024-01-25T02:24:28;102131.69;;;7.90;100.00
2178;BME280;1095;50.992;6.798;2024-01-25T02:26:58;102148.28;;;7.89;100.00
2178;BME280;1095;50.992;6.798;2024-01-25T02:29:30;102156.28;;;7.86;100.00
2178;BME280;1095;50.992;6.798;2024-01-25T02:39:03;102164.63;;;7.78;100.00
2178;BME280;1095;50.992;6.798;2024-01-25T02:49:14;102178.28;;;7.82;100.00
2178;BME280;1095;50.992;6.798;2024-01-25T02:51:41;102174.94;;;7.80;100.00
2178;BME280;1095;50.992;6.798;2024-01-25T02:54:50;102184.03;;;7.87;100.00
2178;BME280;1095;50.992;6.798;2024-01-25T04:32:12;102221.28;;;6.64;100.00
2178;BME280;1095;50.992;6.798;2024-01-25T04:35:05;102221.50;;;6.61;100.00
2178;BME280;1095;50.992;6.798;2024-01-25T04:45:47;102238.97;;;6.59;100.00
2178;BME280;1095;50.992;6.798;2024-01-25T04:48:41;102223.91;;;6.50;100.00
2178;BME280;1095;50.992;6.798;2024-01-25T04:51:20;102230.19;;;6.46;100.00
2178;BME280;1095;50.992;6.798;2024-01-25T04:53:59;102228.88;;;6.39;100.00
2178;BME280;1095;50.992;6.798;2024-01-25T04:56:47;102234.44;;;6.32;100.00
2178;BME280;1095;50.992;6.798;2024-01-25T05:11:32;102223.38;;;6.29;100.00
2178;BME280;1095;50.992;6.798;2024-01-25T05:14:13;102234.78;;;6.26;100.00
2178;BME280;1095;50.992;6.798;2024-01-25T05:21:04;102235.06;;;6.22;100.00
2178;BME280;1095;50.992;6.798;2024-01-25T06:12:35;102246.69;;;5.69;100.00
2178;BME280;1095;50.992;6.798;2024-01-25T06:15:09;102238.50;;;5.61;100.00
2178;BME280;1095;50.992;6.798;2024-01-25T06:51:41;102266.63;;;5.37;100.00
2178;BME280;1095;50.992;6.798;2024-01-25T06:54:08;102285.72;;;5.36;100.00
2178;BME280;1095;50.992;6.798;2024-01-25T06:56:40;102272.16;;;5.31;100.00
2178;BME280;1095;50.992;6.798;2024-01-25T06:59:08;102270.13;;;5.20;100.00
2178;BME280;1095;50.992;6.798;2024-01-25T07:01:38;102256.91;;;5.25;100.00
2178;BME280;1095;50.992;6.798;2024-01-25T07:04:07;102288.00;;;5.42;100.00
2178;BME280;1095;50.992;6.798;2024-01-25T07:06:34;102261.53;;;5.20;100.00
2178;BME280;1095;50.992;6.798;2024-01-25T07:09:01;102255.75;;;5.15;100.00
2178;BME280;1095;50.992;6.798;2024-01-25T07:11:29;102295.44;;;5.32;100.00
2178;BME280;1095;50.992;6.798;2024-01-25T07:13:58;102304.16;;;5.31;100.00
2178;BME280;1095;50.992;6.798;2024-01-25T07:16:30;102298.66;;;5.20;100.00
2178;BME280;1095;50.992;6.798;2024-01-25T07:19:22;102315.53;;;5.29;100.00
2178;BME280;1095;50.992;6.798;2024-01-25T07:22:07;102296.28;;;5.17;100.00
2178;BME280;1095;50.992;6.798;2024-01-25T07:30:30;102307.13;;;5.08;100.00
2178;BME280;1095;50.992;6.798;2024-01-25T07:32:58;102306.13;;;5.11;100.00
2178;BME280;1095;50.992;6.798;2024-01-25T07:35:27;102285.84;;;5.02;100.00
2178;BME280;1095;50.992;6.798;2024-01-25T07:37:58;102308.66;;;5.12;100.00
2178;BME280;1095;50.992;6.798;2024-01-25T07:40:28;102320.19;;;5.22;100.00
2178;BME280;1095;50.992;6.798;2024-01-25T07:42:55;102311.00;;;5.17;100.00
2178;BME280;1095;50.992;6.798;2024-01-25T07:45:22;102318.78;;;5.32;100.00
2178;BME280;1095;50.992;6.798;2024-01-25T07:47:52;102316.88;;;5.36;100.00
2178;BME280;1095;50.992;6.798;2024-01-25T07:50:21;102327.88;;;5.41;100.00
2178;BME280;1095;50.992;6.798;2024-01-25T07:52:56;102302.31;;;5.33;100.00
2178;BME280;1095;50.992;6.798;2024-01-25T07:55:29;102284.91;;;5.36;100.00
2178;BME280;1095;50.992;6.798;2024-01-25T07:57:56;102316.50;;;5.59;100.00
2178;BME280;1095;50.992;6.798;2024-01-25T08:00:35;102322.88;;;5.85;100.00
2178;BME280;1095;50.992;6.798;2024-01-25T08:06:17;102323.97;;;6.13;100.00
2178;BME280;1095;50.992;6.798;2024-01-25T08:08:54;102340.09;;;6.33;100.00
2178;BME280;1095;50.992;6.798;2024-01-25T08:11:39;102343.88;;;6.44;100.00
2178;BME280;1095;50.992;6.798;2024-01-25T08:14:16;102316.72;;;6.33;100.00
2178;BME280;1095;50.992;6.798;2024-01-25T08:16:46;102340.94;;;6.64;100.00
2178;BME280;1095;50.992;6.798;2024-01-25T08:19:18;102340.22;;;6.76;100.00
2178;BME280;1095;50.992;6.798;2024-01-25T08:21:45;102355.97;;;6.89;100.00
2178;BME280;1095;50.992;6.798;2024-01-25T08:24:25;102349.38;;;6.97;100.00
2178;BME280;1095;50.992;6.798;2024-01-25T08:27:01;102306.34;;;6.92;100.00
2178;BME280;1095;50.992;6.798;2024-01-25T08:29:28;102330.88;;;7.16;100.00
2178;BME280;1095;50.992;6.798;2024-01-25T08:31:57;102298.47;;;7.08;100.00
2178;BME280;1095;50.992;6.798;2024-01-25T08:34:24;102307.19;;;7.35;100.00
2178;BME280;1095;50.992;6.798;2024-01-25T08:36:50;102298.25;;;7.11;100.00
2178;BME280;1095;50.992;6.798;2024-01-25T08:39:19;102325.03;;;7.27;100.00
2178;BME280;1095;50.992;6.798;2024-01-25T08:41:47;102315.00;;;7.21;100.00
2178;BME280;1095;50.992;6.798;2024-01-25T08:44:15;102308.19;;;7.18;100.00
2178;BME280;1095;50.992;6.798;2024-01-25T08:46:42;102311.56;;;7.35;100.00
2178;BME280;1095;50.992;6.798;2024-01-25T08:49:11;102304.03;;;7.30;100.00
2178;BME280;1095;50.992;6.798;2024-01-25T08:51:43;102306.34;;;7.35;100.00
2178;BME280;1095;50.992;6.798;2024-01-25T08:54:24;102301.31;;;7.31;100.00
2178;BME280;1095;50.992;6.798;2024-01-25T08:57:17;102297.69;;;7.48;100.00
2178;BME280;1095;50.992;6.798;2024-01-25T08:59:59;102285.78;;;7.44;100.00
2178;BME280;1095;50.992;6.798;2024-01-25T09:02:38;102296.56;;;7.38;100.00
2178;BME280;1095;50.992;6.798;2024-01-25T09:05:08;102296.75;;;7.35;100.00
2178;BME280;1095;50.992;6.798;2024-01-25T09:07:37;102299.25;;;7.51;100.00
2178;BME280;1095;50.992;6.798;2024-01-25T09:10:49;102277.31;;;7.41;100.00
2178;BME280;1095;50.992;6.798;2024-01-25T09:13:21;102280.34;;;7.61;100.00
2178;BME280;1095;50.992;6.798;2024-01-25T09:15:56;102251.56;;;7.36;100.00
2178;BME280;1095;50.992;6.798;2024-01-25T09:18:42;102268.25;;;7.60;100.00
2178;BME280;1095;50.992;6.798;2024-01-25T09:21:48;102271.03;;;7.57;100.00
2178;BME280;1095;50.992;6.798;2024-01-25T09:24:29;102284.19;;;7.56;100.00
2178;BME280;1095;50.992;6.798;2024-01-25T09:27:22;102295.22;;;7.59;100.00
2178;BME280;1095;50.992;6.798;2024-01-25T09:30:08;102276.47;;;7.54;100.00
2178;BME280;1095;50.992;6.798;2024-01-25T09:33:06;102284.41;;;7.65;100.00
2178;BME280;1095;50.992;6.798;2024-01-25T09:36:00;102272.31;;;7.64;100.00
2178;BME280;1095;50.992;6.798;2024-01-25T09:38:42;102285.41;;;7.77;100.00
2178;BME280;1095;50.992;6.798;2024-01-25T09:41:11;102289.78;;;7.77;100.00
2178;BME280;1095;50.992;6.798;2024-01-25T09:43:54;102333.75;;;8.22;100.00
2178;BME280;1095;50.992;6.798;2024-01-25T09:46:42;102332.63;;;8.26;100.00
2178;BME280;1095;50.992;6.798;2024-01-25T09:49:23;102327.88;;;8.33;100.00
2178;BME280;1095;50.992;6.798;2024-01-25T09:52:13;102333.38;;;8.28;100.00
2178;BME280;1095;50.992;6.798;2024-01-25T09:54:44;102325.78;;;8.11;100.00
2178;BME280;1095;50.992;6.798;2024-01-25T09:57:32;102335.16;;;8.01;100.00
2178;BME280;1095;50.992;6.798;2024-01-25T10:00:31;102336.00;;;8.02;100.00
2178;BME280;1095;50.992;6.798;2024-01-25T10:06:25;102342.56;;;8.07;100.00
2178;BME280;1095;50.992;6.798;2024-01-25T10:09:20;102336.66;;;8.18;100.00
2178;BME280;1095;50.992;6.798;2024-01-25T10:11:59;102330.22;;;8.23;100.00
2178;BME280;1095;50.992;6.798;2024-01-25T10:14:49;102332.16;;;8.34;100.00
2178;BME280;1095;50.992;6.798;2024-01-25T10:17:32;102291.38;;;8.33;100.00
2178;BME280;1095;50.992;6.798;2024-01-25T10:22:56;102304.94;;;8.51;100.00
2178;BME280;1095;50.992;6.798;2024-01-25T10:25:30;102312.09;;;8.74;100.00
2178;BME280;1095;50.992;6.798;2024-01-25T10:28:23;102287.56;;;8.77;100.00
2178;BME280;1095;50.992;6.798;2024-01-25T10:31:32;102284.94;;;8.64;100.00
2178;BME280;1095;50.992;6.798;2024-01-25T10:34:30;102313.75;;;9.01;100.00
2178;BME280;1095;50.992;6.798;2024-01-25T10:37:17;102321.50;;;8.89;100.00
2178;BME280;1095;50.992;6.798;2024-01-25T10:40:17;102307.09;;;8.96;99.80
2178;BME280;1095;50.992;6.798;2024-01-25T10:42:51;102285.03;;;9.01;99.55
2178;BME280;1095;50.992;6.798;2024-01-25T10:45:47;102287.13;;;9.21;98.47
2178;BME280;1095;50.992;6.798;2024-01-25T10:48:38;102264.25;;;8.99;97.88
2178;BME280;1095;50.992;6.798;2024-01-25T10:55:21;102241.03;;;9.20;96.91
2178;BME280;1095;50.992;6.798;2024-01-25T10:58:20;102267.16;;;9.20;97.03
2178;BME280;1095;50.992;6.798;2024-01-25T11:01:53;102234.69;;;9.11;96.46
2178;BME280;1095;50.992;6.798;2024-01-25T11:09:28;102235.38;;;9.62;95.43
2178;BME280;1095;50.992;6.798;2024-01-25T11:10:59;102228.44;;;9.74;94.44
2178;BME280;1095;50.992;6.798;2024-01-25T11:17:23;102227.53;;;9.62;93.50
2178;BME280;1095;50.992;6.798;2024-01-25T11:30:13;102200.56;;;9.86;92.49
2178;BME280;1095;50.992;6.798;2024-01-25T11:33:24;102225.78;;;10.22;91.75
2178;BME280;1095;50.992;6.798;2024-01-25T11:40:37;102199.91;;;10.52;89.57
2178;BME280;1095;50.992;6.798;2024-01-25T11:43:25;102198.81;;;10.33;88.59
2178;BME280;1095;50.992;6.798;2024-01-25T11:46:18;102198.09;;;10.30;87.62
2178;BME280;1095;50.992;6.798;2024-01-25T11:49:23;102196.56;;;10.39;88.34
2178;BME280;1095;50.992;6.798;2024-01-25T11:52:39;102166.00;;;10.40;87.85
2178;BME280;1095;50.992;6.798;2024-01-25T11:56:13;102164.69;;;10.34;88.12
2178;BME280;1095;50.992;6.798;2024-01-25T12:09:15;102149.47;;;10.39;85.31
2178;BME280;1095;50.992;6.798;2024-01-25T12:12:24;102165.50;;;10.90;85.44
2178;BME280;1095;50.992;6.798;2024-01-25T12:15:32;102166.91;;;11.17;84.29
2178;BME280;1095;50.992;6.798;2024-01-25T12:18:24;102156.69;;;10.91;83.83
2178;BME280;1095;50.992;6.798;2024-01-25T12:21:06;102156.56;;;10.93;84.14
2178;BME280;1095;50.992;6.798;2024-01-25T12:23:42;102146.91;;;11.05;83.50
2178;BME280;1095;50.992;6.798;2024-01-25T12:26:40;102123.03;;;10.87;83.00
2178;BME280;1095;50.992;6.798;2024-01-25T12:29:13;102122.47;;;11.15;82.72
2178;BME280;1095;50.992;6.798;2024-01-25T12:31:43;102093.59;;;10.94;81.94
2178;BME280;1095;50.992;6.798;2024-01-25T12:34:31;102122.09;;;11.20;81.76
2178;BME280;1095;50.992;6.798;2024-01-25T12:37:15;102110.66;;;11.32;81.80
2178;BME280;1095;50.992;6.798;2024-01-25T12:40:34;102090.66;;;11.20;81.58
2178;BME280;1095;50.992;6.798;2024-01-25T12:43:48;102071.66;;;11.07;81.20
2178;BME280;1095;50.992;6.798;2024-01-25T12:46:42;102124.97;;;11.17;82.28
2178;BME280;1095;50.992;6.798;2024-01-25T12:52:12;102137.56;;;11.34;82.11
2178;BME280;1095;50.992;6.798;2024-01-25T12:55:02;102110.94;;;11.39;81.40
2178;BME280;1095;50.992;6.798;2024-01-25T12:57:38;102087.81;;;11.44;80.65
2178;BME280;1095;50.992;6.798;2024-01-25T13:00:39;102083.59;;;11.52;80.01
2178;BME280;1095;50.992;6.798;2024-01-25T13:03:27;102089.34;;;11.78;80.05
2178;BME280;1095;50.992;6.798;2024-01-25T13:06:07;102075.94;;;11.60;79.84
2178;BME280;1095;50.992;6.798;2024-01-25T13:08:56;102069.44;;;11.76;79.19
2178;BME280;1095;50.992;6.798;2024-01-25T13:11:32;102059.97;;;11.63;79.13
2178;BME280;1095;50.992;6.798;2024-01-25T13:14:07;102061.38;;;11.68;79.30
2178;BME280;1095;50.992;6.798;2024-01-25T13:16:53;102063.88;;;11.69;79.57
2178;BME280;1095;50.992;6.798;2024-01-25T13:23:18;102073.31;;;11.60;80.38
2178;BME280;1095;50.992;6.798;2024-01-25T13:26:21;102073.38;;;11.49;81.40
2178;BME280;1095;50.992;6.798;2024-01-25T13:28:51;102052.28;;;11.51;80.91
2178;BME280;1095;50.992;6.798;2024-01-25T13:31:50;102047.66;;;11.43;80.36
2178;BME280;1095;50.992;6.798;2024-01-25T13:35:03;102030.84;;;11.46;80.21
2178;BME280;1095;50.992;6.798;2024-01-25T13:38:10;102039.94;;;11.21;80.45
2178;BME280;1095;50.992;6.798;2024-01-25T13:47:08;102039.34;;;11.38;81.60
2178;BME280;1095;50.992;6.798;2024-01-25T13:49:50;102028.38;;;11.44;81.29
2178;BME280;1095;50.992;6.798;2024-01-25T13:52:55;102016.84;;;11.36;80.65
2178;BME280;1095;50.992;6.798;2024-01-25T13:55:33;102024.53;;;11.48;80.00
2178;BME280;1095;50.992;6.798;2024-01-25T13:58:35;102012.13;;;11.50;79.80
2178;BME280;1095;50.992;6.798;2024-01-25T14:01:29;102004.00;;;11.53;79.48
2178;BME280;1095;50.992;6.798;2024-01-25T14:04:10;102009.97;;;11.55;79.75
2178;BME280;1095;50.992;6.798;2024-01-25T14:06:40;102000.22;;;11.46;79.49
2178;BME280;1095;50.992;6.798;2024-01-25T14:09:43;102008.53;;;11.51;79.29
2178;BME280;1095;50.992;6.798;2024-01-25T14:12:41;101999.63;;;11.33;79.56
2178;BME280;1095;50.992;6.798;2024-01-25T14:15:46;102005.59;;;11.45;79.14
2178;BME280;1095;50.992;6.798;2024-01-25T14:24:38;102000.63;;;11.62;78.41
2178;BME280;1095;50.992;6.798;2024-01-25T14:33:37;101982.34;;;11.51;78.94
2178;BME280;1095;50.992;6.798;2024-01-25T14:36:33;101982.22;;;11.53;79.17
2178;BME280;1095;50.992;6.798;2024-01-25T14:46:22;101992.53;;;10.92;80.05
2178;BME280;1095;50.992;6.798;2024-01-25T14:49:00;101992.41;;;10.61;81.72
2178;BME280;1095;50.992;6.798;2024-01-25T14:51:39;101989.44;;;10.55;82.02
2178;BME280;1095;50.992;6.798;2024-01-25T14:54:08;101977.53;;;10.62;82.22
2178;BME280;1095;50.992;6.798;2024-01-25T14:56:51;101971.31;;;10.74;82.90
2178;BME280;1095;50.992;6.798;2024-01-25T14:59:25;101962.50;;;10.75;83.20
2178;BME280;1095;50.992;6.798;2024-01-25T15:02:16;101969.72;;;10.83;83.44
2178;BME280;1095;50.992;6.798;2024-01-25T15:05:10;101954.56;;;10.66;83.64
2178;BME280;1095;50.992;6.798;2024-01-25T15:07:55;101958.59;;;10.70;83.41
2178;BME280;1095;50.992;6.798;2024-01-25T15:10:39;101962.25;;;10.78;83.23
2178;BME280;1095;50.992;6.798;2024-01-25T15:13:19;101958.94;;;10.76;83.16
2178;BME280;1095;50.992;6.798;2024-01-25T15:16:23;101951.78;;;10.78;82.85
2178;BME280;1095;50.992;6.798;2024-01-25T15:19:19;101941.22;;;10.69;82.54
2178;BME280;1095;50.992;6.798;2024-01-25T15:22:03;101938.00;;;10.65;82.74
2178;BME280;1095;50.992;6.798;2024-01-25T15:24:43;101932.78;;;10.65;82.39
2178;BME280;1095;50.992;6.798;2024-01-25T15:33:15;101937.78;;;10.68;82.34
2178;BME280;1095;50.992;6.798;2024-01-25T15:35:50;101926.69;;;10.76;82.25
2178;BME280;1095;50.992;6.798;2024-01-25T15:38:25;101913.03;;;10.61;82.19
2178;BME280;1095;50.992;6.798;2024-01-25T15:41:16;101931.66;;;10.79;82.32
2178;BME280;1095;50.992;6.798;2024-01-25T15:43:58;101926.94;;;10.73;82.39
2178;BME280;1095;50.992;6.798;2024-01-25T15:46:56;101915.03;;;10.69;82.29
2178;BME280;1095;50.992;6.798;2024-01-25T15:49:38;101912.06;;;10.73;82.04
2178;BME280;1095;50.992;6.798;2024-01-25T15:52:20;101912.28;;;10.70;82.19
2178;BME280;1095;50.992;6.798;2024-01-25T15:54:51;101911.34;;;10.71;81.96
2178;BME280;1095;50.992;6.798;2024-01-25T15:57:38;101909.97;;;10.56;82.37
2178;BME280;1095;50.992;6.798;2024-01-25T16:00:14;101922.44;;;10.63;82.65
2178;BME280;1095;50.992;6.798;2024-01-25T16:02:45;101919.47;;;10.57;82.60
2178;BME280;1095;50.992;6.798;2024-01-25T16:05:21;101907.34;;;10.56;82.31
2178;BME280;1095;50.992;6.798;2024-01-25T16:08:01;101912.91;;;10.62;82.52
2178;BME280;1095;50.992;6.798;2024-01-25T16:11:03;101904.72;;;10.56;82.48
2178;BME280;1095;50.992;6.798;2024-01-25T16:13:45;101905.34;;;10.48;82.37
2178;BME280;1095;50.992;6.798;2024-01-25T16:16:19;101915.69;;;10.50;81.97
2178;BME280;1095;50.992;6.798;2024-01-25T16:18:56;101902.16;;;10.45;81.62
2178;BME280;1095;50.992;6.798;2024-01-25T16:21:31;101913.78;;;10.52;81.91
2178;BME280;1095;50.992;6.798;2024-01-25T16:24:05;101908.78;;;10.49;81.82
2178;BME280;1095;50.992;6.798;2024-01-25T16:26:38;101905.41;;;10.37;82.26
2178;BME280;1095;50.992;6.798;2024-01-25T16:29:07;101910.34;;;10.51;81.99
2178;BME280;1095;50.992;6.798;2024-01-25T16:31:34;101903.31;;;10.52;81.86
2178;BME280;1095;50.992;6.798;2024-01-25T16:34:01;101896.03;;;10.55;81.70
2178;BME280;1095;50.992;6.798;2024-01-25T16:36:32;101897.59;;;10.58;81.96
2178;BME280;1095;50.992;6.798;2024-01-25T16:38:59;101874.84;;;10.38;81.68
2178;BME280;1095;50.992;6.798;2024-01-25T16:41:47;101888.94;;;10.46;81.99
2178;BME280;1095;50.992;6.798;2024-01-25T16:44:27;101881.47;;;10.42;82.13
2178;BME280;1095;50.992;6.798;2024-01-25T16:47:01;101886.97;;;10.39;82.53
2178;BME280;1095;50.992;6.798;2024-01-25T16:49:32;101881.16;;;10.35;82.30
2178;BME280;1095;50.992;6.798;2024-01-25T16:52:01;101887.03;;;10.48;81.95
2178;BME280;1095;50.992;6.798;2024-01-25T16:54:40;101887.69;;;10.18;82.40
2178;BME280;1095;50.992;6.798;2024-01-25T16:57:37;101896.25;;;10.32;83.24
2178;BME280;1095;50.992;6.798;2024-01-25T17:00:15;101896.75;;;10.25;83.74
2178;BME280;1095;50.992;6.798;2024-01-25T17:02:56;101892.34;;;10.15;84.38
2178;BME280;1095;50.992;6.798;2024-01-25T17:05:32;101895.22;;;10.01;84.98
2178;BME280;1095;50.992;6.798;2024-01-25T17:08:12;101893.78;;;10.08;85.53
2178;BME280;1095;50.992;6.798;2024-01-25T17:11:07;101885.81;;;10.09;85.75
2178;BME280;1095;50.992;6.798;2024-01-25T17:13:57;101893.69;;;9.98;86.15
2178;BME280;1095;50.992;6.798;2024-01-25T17:16:35;101885.59;;;10.01;85.99
2178;BME280;1095;50.992;6.798;2024-01-25T17:19:26;101885.91;;;10.19;86.78
2178;BME280;1095;50.992;6.798;2024-01-25T17:21:59;101875.00;;;10.03;87.07
2178;BME280;1095;50.992;6.798;2024-01-25T17:24:31;101885.31;;;10.15;88.72
2178;BME280;1095;50.992;6.798;2024-01-25T17:27:03;101888.91;;;10.14;89.36
2178;BME280;1095;50.992;6.798;2024-01-25T17:29:33;101896.53;;;9.95;89.98
2178;BME280;1095;50.992;6.798;2024-01-25T17:32:10;101899.53;;;9.90;91.57
2178;BME280;1095;50.992;6.798;2024-01-25T17:34:57;101918.16;;;9.97;91.71
2178;BME280;1095;50.992;6.798;2024-01-25T17:37:33;101905.25;;;9.73;92.83
2178;BME280;1095;50.992;6.798;2024-01-25T17:40:12;101923.06;;;9.57;94.81
2178;BME280;1095;50.992;6.798;2024-01-25T17:43:00;101930.31;;;9.64;95.57
2178;BME280;1095;50.992;6.798;2024-01-25T17:46:05;101914.28;;;9.69;95.86
2178;BME280;1095;50.992;6.798;2024-01-25T18:35:03;101940.16;;;9.04;100.00
2178;BME280;1095;50.992;6.798;2024-01-25T18:41:09;101940.78;;;9.07;100.00
2178;BME280;1095;50.992;6.798;2024-01-25T18:43:54;101939.00;;;9.08;100.00
2178;BME280;1095;50.992;6.798;2024-01-25T18:46:41;101941.88;;;9.16;100.00
2178;BME280;1095;50.992;6.798;2024-01-25T18:49:21;101950.75;;;9.13;100.00
2178;BME280;1095;50.992;6.798;2024-01-25T18:52:10;101946.03;;;9.18;100.00
2178;BME280;1095;50.992;6.798;2024-01-25T18:54:48;101932.63;;;9.23;100.00
2178;BME280;1095;50.992;6.798;2024-01-25T18:57:25;101930.13;;;9.21;100.00
2178;BME280;1095;50.992;6.798;2024-01-25T19:00:05;101921.44;;;9.10;100.00
2178;BME280;1095;50.992;6.798;2024-01-25T19:03:04;101928.59;;;9.19;100.00
2178;BME280;1095;50.992;6.798;2024-01-25T19:08:29;101918.84;;;9.21;100.00
2178;BME280;1095;50.992;6.798;2024-01-25T19:11:09;101923.84;;;9.24;100.00
2178;BME280;1095;50.992;6.798;2024-01-25T19:13:38;101920.88;;;9.17;100.00
2178;BME280;1095;50.992;6.798;2024-01-25T19:16:06;101919.56;;;9.23;100.00
2178;BME280;1095;50.992;6.798;2024-01-25T19:18:33;101898.41;;;9.15;100.00
2178;BME280;1095;50.992;6.798;2024-01-25T19:21:00;101904.56;;;9.03;100.00
2178;BME280;1095;50.992;6.798;2024-01-25T19:23:28;101913.41;;;9.24;100.00
2178;BME280;1095;50.992;6.798;2024-01-25T19:25:59;101920.28;;;9.25;100.00
2178;BME280;1095;50.992;6.798;2024-01-25T19:28:29;101909.63;;;9.28;100.00
2178;BME280;1095;50.992;6.798;2024-01-25T19:31:13;101912.06;;;9.07;100.00
2178;BME280;1095;50.992;6.798;2024-01-25T19:33:41;101911.09;;;9.08;100.00
2178;BME280;1095;50.992;6.798;2024-01-25T19:36:08;101913.50;;;9.11;100.00
2178;BME280;1095;50.992;6.798;2024-01-25T19:39:24;101913.16;;;9.16;100.00
2178;BME280;1095;50.992;6.798;2024-01-25T19:46:17;101913.19;;;9.27;100.00
2178;BME280;1095;50.992;6.798;2024-01-25T19:53:27;101911.50;;;9.26;100.00
2178;BME280;1095;50.992;6.798;2024-01-25T19:56:02;101916.28;;;9.32;100.00
2178;BME280;1095;50.992;6.798;2024-01-25T20:05:35;101894.19;;;9.36;100.00
2178;BME280;1095;50.992;6.798;2024-01-25T20:08:18;101890.38;;;9.29;100.00
2178;BME280;1095;50.992;6.798;2024-01-25T20:11:05;101887.06;;;9.27;100.00
2178;BME280;1095;50.992;6.798;2024-01-25T20:13:36;101888.47;;;9.31;100.00
2178;BME280;1095;50.992;6.798;2024-01-25T20:16:20;101877.88;;;9.10;100.00
2178;BME280;1095;50.992;6.798;2024-01-25T20:18:57;101880.84;;;9.06;100.00
2178;BME280;1095;50.992;6.798;2024-01-25T20:21:41;101867.56;;;9.09;100.00
2178;BME280;1095;50.992;6.798;2024-01-25T20:24:14;101879.44;;;9.24;100.00
2178;BME280;1095;50.992;6.798;2024-01-25T20:26:58;101871.25;;;9.17;100.00
2178;BME280;1095;50.992;6.798;2024-01-25T20:29:38;101871.94;;;9.08;100.00
2178;BME280;1095;50.992;6.798;2024-01-25T20:32:18;101869.81;;;9.13;100.00
2178;BME280;1095;50.992;6.798;2024-01-25T20:34:46;101863.97;;;8.87;100.00
2178;BME280;1095;50.992;6.798;2024-01-25T20:37:15;101878.00;;;8.97;100.00
2178;BME280;1095;50.992;6.798;2024-01-25T20:39:46;101882.47;;;8.84;100.00
2178;BME280;1095;50.992;6.798;2024-01-25T20:42:19;101881.38;;;8.76;100.00
2178;BME280;1095;50.992;6.798;2024-01-25T20:44:54;101890.28;;;8.84;100.00
2178;BME280;1095;50.992;6.798;2024-01-25T20:47:23;101893.16;;;8.92;100.00
2178;BME280;1095;50.992;6.798;2024-01-25T20:49:53;101875.91;;;8.79;100.00
2178;BME280;1095;50.992;6.798;2024-01-25T20:52:22;101886.63;;;8.87;100.00
2178;BME280;1095;50.992;6.798;2024-01-25T20:54:52;101886.03;;;8.83;100.00
2178;BME280;1095;50.992;6.798;2024-01-25T20:57:22;101894.06;;;8.80;100.00
2178;BME280;1095;50.992;6.798;2024-01-25T20:59:52;101888.75;;;8.82;100.00
2178;BME280;1095;50.992;6.798;2024-01-25T21:02:21;101877.28;;;8.95;100.00
2178;BME280;1095;50.992;6.798;2024-01-25T21:04:50;101877.00;;;8.87;100.00
2178;BME280;1095;50.992;6.798;2024-01-25T21:07:36;101880.31;;;8.78;100.00
2178;BME280;1095;50.992;6.798;2024-01-25T21:10:22;101873.56;;;8.87;100.00
2178;BME280;1095;50.992;6.798;2024-01-25T21:13:08;101886.50;;;8.88;100.00
2178;BME280;1095;50.992;6.798;2024-01-25T21:15:51;101879.84;;;8.84;100.00
2178;BME280;1095;50.992;6.798;2024-01-25T21:18:46;101866.47;;;8.89;100.00
2178;BME280;1095;50.992;6.798;2024-01-25T21:21:58;101884.63;;;8.90;100.00
2178;BME280;1095;50.992;6.798;2024-01-25T21:28:07;101866.84;;;8.95;100.00
2178;BME280;1095;50.992;6.798;2024-01-25T21:34:06;101862.06;;;8.89;100.00
2178;BME280;1095;50.992;6.798;2024-01-25T21:37:18;101870.03;;;9.10;100.00
2178;BME280;1095;50.992;6.798;2024-01-25T21:49:25;101861.00;;;8.92;100.00
2178;BME280;1095;50.992;6.798;2024-01-25T21:53:23;101865.06;;;9.18;100.00
2178;BME280;1095;50.992;6.798;2024-01-25T21:56:34;101864.09;;;9.08;100.00
2178;BME280;1095;50.992;6.798;2024-01-25T21:59:47;101860.00;;;9.28;100.00
2178;BME280;1095;50.992;6.798;2024-01-25T22:09:25;101849.63;;;9.04;100.00
2178;BME280;1095;50.992;6.798;2024-01-25T22:12:15;101846.78;;;9.18;100.00
2178;BME280;1095;50.992;6.798;2024-01-25T22:15:02;101837.41;;;9.16;100.00
2178;BME280;1095;50.992;6.798;2024-01-25T22:17:54;101848.09;;;9.24;100.00
2178;BME280;1095;50.992;6.798;2024-01-25T22:20:31;101844.53;;;9.14;100.00
2178;BME280;1095;50.992;6.798;2024-01-25T22:26:24;101842.88;;;9.13;100.00
2178;BME280;1095;50.992;6.798;2024-01-25T22:34:33;101855.22;;;9.11;100.00
2178;BME280;1095;50.992;6.798;2024-01-25T22:37:43;101836.44;;;9.06;100.00